sensor_id;sensor_type;location;lat;lon;timestamp;pressure;altitude;pressure_sealevel;temperature;humidity
56831;BME280;42713;42.676;23.352;2023-01-26T00:01:19;95227.22;;;1.04;69.16
56831;BME280;42713;42.676;23.352;2023-01-26T00:03:45;95236.59;;;1.05;68.78
56831;BME280;42713;42.676;23.352;2023-01-26T00:06:13;95244.97;;;1.07;69.13
56831;BME280;42713;42.676;23.352;2023-01-26T00:08:41;95245.94;;;1.06;69.16
56831;BME280;42713;42.676;23.352;2023-01-26T00:11:09;95232.06;;;1.07;68.52
56831;BME280;42713;42.676;23.352;2023-01-26T00:13:35;95228.16;;;1.12;69.32
56831;BME280;42713;42.676;23.352;2023-01-26T00:16:02;95229.31;;;1.09;68.51
56831;BME280;42713;42.676;23.352;2023-01-26T00:18:28;95238.97;;;1.07;68.75
56831;BME280;42713;42.676;23.352;2023-01-26T00:20:55;95238.97;;;1.07;68.71
56831;BME280;42713;42.676;23.352;2023-01-26T00:23:22;95242.91;;;1.03;68.48
56831;BME280;42713;42.676;23.352;2023-01-26T00:25:47;95249.63;;;1.04;68.56
56831;BME280;42713;42.676;23.352;2023-01-26T00:28:12;95248.66;;;1.05;68.48
56831;BME280;42713;42.676;23.352;2023-01-26T00:30:38;95228.03;;;1.05;69.39
56831;BME280;42713;42.676;23.352;2023-01-26T00:33:03;95226.94;;;0.99;69.20
56831;BME280;42713;42.676;23.352;2023-01-26T00:35:29;95229.41;;;0.92;69.07
56831;BME280;42713;42.676;23.352;2023-01-26T00:37:54;95203.09;;;0.97;69.14
56831;BME280;42713;42.676;23.352;2023-01-26T00:40:19;95210.19;;;0.95;69.21
56831;BME280;42713;42.676;23.352;2023-01-26T00:42:45;95214.84;;;1.00;68.51
56831;BME280;42713;42.676;23.352;2023-01-26T00:45:11;95201.13;;;0.99;68.33
56831;BME280;42713;42.676;23.352;2023-01-26T00:47:36;95209.34;;;1.03;67.99
56831;BME280;42713;42.676;23.352;2023-01-26T00:50:01;95206.47;;;0.98;67.80
56831;BME280;42713;42.676;23.352;2023-01-26T00:52:27;95204.41;;;0.93;68.06
56831;BME280;42713;42.676;23.352;2023-01-26T00:54:52;95204.69;;;0.98;67.97
56831;BME280;42713;42.676;23.352;2023-01-26T00:57:18;95192.28;;;0.93;68.16
56831;BME280;42713;42.676;23.352;2023-01-26T00:59:43;95199.38;;;1.00;68.73
56831;BME280;42713;42.676;23.352;2023-01-26T01:02:09;95193.91;;;0.95;67.74
56831;BME280;42713;42.676;23.352;2023-01-26T01:04:34;95191.78;;;0.98;68.18
56831;BME280;42713;42.676;23.352;2023-01-26T01:06:59;95182.78;;;0.94;67.82
56831;BME280;42713;42.676;23.352;2023-01-26T01:09:25;95184.75;;;0.92;67.70
56831;BME280;42713;42.676;23.352;2023-01-26T01:11:51;95187.50;;;0.90;67.48
56831;BME280;42713;42.676;23.352;2023-01-26T01:14:16;95192.66;;;0.90;67.29
56831;BME280;42713;42.676;23.352;2023-01-26T01:16:42;95197.63;;;0.92;68.20
56831;BME280;42713;42.676;23.352;2023-01-26T01:19:15;95188.13;;;0.92;67.29
56831;BME280;42713;42.676;23.352;2023-01-26T01:21:42;95169.72;;;0.96;67.11
56831;BME280;42713;42.676;23.352;2023-01-26T01:24:07;95166.69;;;0.92;68.02
56831;BME280;42713;42.676;23.352;2023-01-26T01:26:33;95178.16;;;0.89;67.11
56831;BME280;42713;42.676;23.352;2023-01-26T01:28:58;95183.59;;;0.95;66.96
56831;BME280;42713;42.676;23.352;2023-01-26T01:31:24;95181.97;;;0.93;67.22
56831;BME280;42713;42.676;23.352;2023-01-26T01:33:51;95170.88;;;0.93;66.98
56831;BME280;42713;42.676;23.352;2023-01-26T01:36:17;95161.53;;;0.92;67.09
56831;BME280;42713;42.676;23.352;2023-01-26T01:38:44;95163.97;;;0.85;66.68
56831;BME280;42713;42.676;23.352;2023-01-26T01:41:10;95175.25;;;0.92;66.83
56831;BME280;42713;42.676;23.352;2023-01-26T01:43:37;95168.13;;;0.95;66.96
56831;BME280;42713;42.676;23.352;2023-01-26T01:46:06;95173.72;;;0.98;67.08
56831;BME280;42713;42.676;23.352;2023-01-26T01:51:12;95173.28;;;0.95;67.17
56831;BME280;42713;42.676;23.352;2023-01-26T01:53:43;95166.88;;;0.90;67.23
56831;BME280;42713;42.676;23.352;2023-01-26T01:56:17;95176.25;;;0.83;67.00
56831;BME280;42713;42.676;23.352;2023-01-26T01:58:48;95167.25;;;0.79;66.70
56831;BME280;42713;42.676;23.352;2023-01-26T02:01:15;95164.84;;;0.77;66.36
56831;BME280;42713;42.676;23.352;2023-01-26T02:03:42;95161.28;;;0.78;67.22
56831;BME280;42713;42.676;23.352;2023-01-26T02:06:19;95143.13;;;0.72;66.80
56831;BME280;42713;42.676;23.352;2023-01-26T02:08:48;95162.41;;;0.76;67.08
56831;BME280;42713;42.676;23.352;2023-01-26T02:11:18;95151.66;;;0.72;66.97
56831;BME280;42713;42.676;23.352;2023-01-26T02:13:46;95150.69;;;0.73;67.32
56831;BME280;42713;42.676;23.352;2023-01-26T02:16:13;95150.84;;;0.72;67.15
56831;BME280;42713;42.676;23.352;2023-01-26T02:18:39;95144.09;;;0.71;67.01
56831;BME280;42713;42.676;23.352;2023-01-26T02:21:06;95135.38;;;0.72;67.29
56831;BME280;42713;42.676;23.352;2023-01-26T02:28:43;95111.88;;;0.67;67.61
56831;BME280;42713;42.676;23.352;2023-01-26T02:31:09;95118.00;;;0.66;68.02
56831;BME280;42713;42.676;23.352;2023-01-26T02:33:35;95112.53;;;0.69;67.00
56831;BME280;42713;42.676;23.352;2023-01-26T02:36:01;95115.09;;;0.69;66.70
56831;BME280;42713;42.676;23.352;2023-01-26T02:38:40;95110.97;;;0.59;67.36
56831;BME280;42713;42.676;23.352;2023-01-26T02:41:12;95107.47;;;0.52;67.77
56831;BME280;42713;42.676;23.352;2023-01-26T02:43:59;95109.09;;;0.45;67.77
56831;BME280;42713;42.676;23.352;2023-01-26T02:46:25;95104.63;;;0.39;68.03
56831;BME280;42713;42.676;23.352;2023-01-26T02:48:50;95110.69;;;0.46;67.93
56831;BME280;42713;42.676;23.352;2023-01-26T02:51:34;95097.81;;;0.46;68.07
56831;BME280;42713;42.676;23.352;2023-01-26T02:54:00;95088.97;;;0.49;67.90
56831;BME280;42713;42.676;23.352;2023-01-26T02:56:25;95098.13;;;0.51;68.04
56831;BME280;42713;42.676;23.352;2023-01-26T02:58:50;95088.28;;;0.55;68.00
56831;BME280;42713;42.676;23.352;2023-01-26T03:01:16;95075.06;;;0.58;68.71
56831;BME280;42713;42.676;23.352;2023-01-26T03:03:41;95077.44;;;0.59;68.47
56831;BME280;42713;42.676;23.352;2023-01-26T03:06:08;95081.00;;;0.58;67.94
56831;BME280;42713;42.676;23.352;2023-01-26T03:08:34;95078.59;;;0.57;68.35
56831;BME280;42713;42.676;23.352;2023-01-26T03:11:00;95074.06;;;0.59;68.16
56831;BME280;42713;42.676;23.352;2023-01-26T03:13:26;95079.84;;;0.61;67.74
56831;BME280;42713;42.676;23.352;2023-01-26T03:15:51;95072.56;;;0.65;67.79
56831;BME280;42713;42.676;23.352;2023-01-26T03:18:20;95068.56;;;0.62;67.50
56831;BME280;42713;42.676;23.352;2023-01-26T03:21:08;95068.91;;;0.59;68.36
56831;BME280;42713;42.676;23.352;2023-01-26T03:23:52;95057.00;;;0.58;67.71
56831;BME280;42713;42.676;23.352;2023-01-26T03:26:38;95055.88;;;0.60;67.79
56831;BME280;42713;42.676;23.352;2023-01-26T03:29:22;95050.41;;;0.55;68.10
56831;BME280;42713;42.676;23.352;2023-01-26T03:31:48;95049.63;;;0.55;68.36
56831;BME280;42713;42.676;23.352;2023-01-26T03:34:14;95047.81;;;0.55;68.22
56831;BME280;42713;42.676;23.352;2023-01-26T03:36:39;95052.38;;;0.53;68.16
56831;BME280;42713;42.676;23.352;2023-01-26T03:39:05;95049.50;;;0.48;67.69
56831;BME280;42713;42.676;23.352;2023-01-26T03:41:31;95053.03;;;0.47;67.81
56831;BME280;42713;42.676;23.352;2023-01-26T03:44:14;95046.28;;;0.46;67.92
56831;BME280;42713;42.676;23.352;2023-01-26T03:46:59;95050.47;;;0.47;68.53
56831;BME280;42713;42.676;23.352;2023-01-26T03:49:43;95041.94;;;0.46;67.46
56831;BME280;42713;42.676;23.352;2023-01-26T03:52:27;95043.09;;;0.44;68.45
56831;BME280;42713;42.676;23.352;2023-01-26T03:55:13;95030.03;;;0.45;68.90
56831;BME280;42713;42.676;23.352;2023-01-26T03:57:57;95031.97;;;0.43;68.84
56831;BME280;42713;42.676;23.352;2023-01-26T04:00:22;95023.59;;;0.41;68.66
56831;BME280;42713;42.676;23.352;2023-01-26T04:02:48;95024.41;;;0.42;68.85
56831;BME280;42713;42.676;23.352;2023-01-26T04:05:32;95018.94;;;0.37;68.34
56831;BME280;42713;42.676;23.352;2023-01-26T04:08:16;95025.91;;;0.36;68.83
56831;BME280;42713;42.676;23.352;2023-01-26T04:10:54;95010.13;;;0.31;68.61
56831;BME280;42713;42.676;23.352;2023-01-26T04:13:22;95008.19;;;0.33;68.52
56831;BME280;42713;42.676;23.352;2023-01-26T04:16:07;95009.81;;;0.34;68.97
56831;BME280;42713;42.676;23.352;2023-01-26T04:18:51;95000.13;;;0.36;68.49
56831;BME280;42713;42.676;23.352;2023-01-26T04:21:35;95004.47;;;0.36;68.28
56831;BME280;42713;42.676;23.352;2023-01-26T04:24:05;94996.13;;;0.34;68.26
56831;BME280;42713;42.676;23.352;2023-01-26T04:26:38;94980.31;;;0.37;68.66
56831;BME280;42713;42.676;23.352;2023-01-26T04:29:12;94993.81;;;0.39;68.73
56831;BME280;42713;42.676;23.352;2023-01-26T04:31:38;94984.03;;;0.34;69.12
56831;BME280;42713;42.676;23.352;2023-01-26T04:34:06;94971.34;;;0.33;69.39
56831;BME280;42713;42.676;23.352;2023-01-26T04:36:31;94980.19;;;0.30;68.98
56831;BME280;42713;42.676;23.352;2023-01-26T04:38:57;94981.28;;;0.36;68.88
56831;BME280;42713;42.676;23.352;2023-01-26T04:41:23;94985.75;;;0.42;68.68
56831;BME280;42713;42.676;23.352;2023-01-26T04:43:49;94986.84;;;0.48;68.76
56831;BME280;42713;42.676;23.352;2023-01-26T04:46:14;94974.75;;;0.48;68.97
56831;BME280;42713;42.676;23.352;2023-01-26T04:48:40;94986.22;;;0.45;69.08
56831;BME280;42713;42.676;23.352;2023-01-26T04:51:12;94983.13;;;0.50;68.63
56831;BME280;42713;42.676;23.352;2023-01-26T04:53:38;94988.47;;;0.49;68.09
56831;BME280;42713;42.676;23.352;2023-01-26T04:56:04;94986.66;;;0.49;68.38
56831;BME280;42713;42.676;23.352;2023-01-26T04:58:31;94987.13;;;0.53;68.59
56831;BME280;42713;42.676;23.352;2023-01-26T05:00:57;94992.28;;;0.53;68.10
56831;BME280;42713;42.676;23.352;2023-01-26T05:03:24;94989.50;;;0.54;68.43
56831;BME280;42713;42.676;23.352;2023-01-26T05:05:51;94983.44;;;0.47;68.51
56831;BME280;42713;42.676;23.352;2023-01-26T05:08:19;94994.59;;;0.48;67.45
56831;BME280;42713;42.676;23.352;2023-01-26T05:10:45;94981.50;;;0.49;67.97
56831;BME280;42713;42.676;23.352;2023-01-26T05:13:11;94980.44;;;0.43;67.74
56831;BME280;42713;42.676;23.352;2023-01-26T05:15:36;94980.25;;;0.45;68.17
56831;BME280;42713;42.676;23.352;2023-01-26T05:18:02;94976.25;;;0.42;68.15
56831;BME280;42713;42.676;23.352;2023-01-26T05:20:28;94976.69;;;0.46;68.47
56831;BME280;42713;42.676;23.352;2023-01-26T05:22:53;94969.16;;;0.44;68.04
56831;BME280;42713;42.676;23.352;2023-01-26T05:25:19;94978.66;;;0.44;68.54
56831;BME280;42713;42.676;23.352;2023-01-26T05:27:45;94975.16;;;0.37;68.28
56831;BME280;42713;42.676;23.352;2023-01-26T05:30:11;94967.28;;;0.38;68.41
56831;BME280;42713;42.676;23.352;2023-01-26T05:32:36;94975.50;;;0.34;67.32
56831;BME280;42713;42.676;23.352;2023-01-26T05:35:03;94969.03;;;0.38;68.11
56831;BME280;42713;42.676;23.352;2023-01-26T05:37:29;94972.69;;;0.43;67.88
56831;BME280;42713;42.676;23.352;2023-01-26T05:39:55;94973.97;;;0.48;67.90
56831;BME280;42713;42.676;23.352;2023-01-26T05:42:21;94967.66;;;0.50;67.76
56831;BME280;42713;42.676;23.352;2023-01-26T05:44:47;94966.22;;;0.48;67.96
56831;BME280;42713;42.676;23.352;2023-01-26T05:47:13;94960.25;;;0.47;68.08
56831;BME280;42713;42.676;23.352;2023-01-26T05:49:38;94965.41;;;0.47;68.12
56831;BME280;42713;42.676;23.352;2023-01-26T05:52:14;94968.28;;;0.52;67.61
56831;BME280;42713;42.676;23.352;2023-01-26T05:54:40;94973.09;;;0.55;67.40
56831;BME280;42713;42.676;23.352;2023-01-26T05:57:06;94973.72;;;0.57;67.08
56831;BME280;42713;42.676;23.352;2023-01-26T05:59:32;94973.91;;;0.56;67.42
56831;BME280;42713;42.676;23.352;2023-01-26T06:02:03;94972.94;;;0.57;66.87
56831;BME280;42713;42.676;23.352;2023-01-26T06:04:30;94963.53;;;0.64;73.27
56831;BME280;42713;42.676;23.352;2023-01-26T06:07:01;94973.22;;;0.77;73.37
56831;BME280;42713;42.676;23.352;2023-01-26T06:09:34;94961.59;;;0.81;69.86
56831;BME280;42713;42.676;23.352;2023-01-26T06:12:02;94963.13;;;0.90;68.48
56831;BME280;42713;42.676;23.352;2023-01-26T06:14:32;94963.56;;;0.94;68.02
56831;BME280;42713;42.676;23.352;2023-01-26T06:16:58;94965.97;;;0.96;68.08
56831;BME280;42713;42.676;23.352;2023-01-26T06:19:23;94949.88;;;0.93;66.68
56831;BME280;42713;42.676;23.352;2023-01-26T06:21:49;94959.13;;;0.88;67.35
56831;BME280;42713;42.676;23.352;2023-01-26T06:24:17;94948.44;;;0.91;67.37
56831;BME280;42713;42.676;23.352;2023-01-26T06:26:45;94960.38;;;0.92;67.40
56831;BME280;42713;42.676;23.352;2023-01-26T06:29:13;94943.72;;;0.95;67.05
56831;BME280;42713;42.676;23.352;2023-01-26T06:31:39;94936.97;;;0.93;66.88
56831;BME280;42713;42.676;23.352;2023-01-26T06:34:04;94934.13;;;0.88;67.12
56831;BME280;42713;42.676;23.352;2023-01-26T06:36:30;94937.59;;;0.96;67.63
56831;BME280;42713;42.676;23.352;2023-01-26T06:38:55;94933.06;;;0.98;67.50
56831;BME280;42713;42.676;23.352;2023-01-26T06:41:21;94938.69;;;1.01;67.43
56831;BME280;42713;42.676;23.352;2023-01-26T06:43:47;94941.09;;;1.03;67.35
56831;BME280;42713;42.676;23.352;2023-01-26T06:46:14;94941.00;;;0.96;67.01
56831;BME280;42713;42.676;23.352;2023-01-26T06:48:42;94937.78;;;0.94;66.81
56831;BME280;42713;42.676;23.352;2023-01-26T06:56:16;94937.69;;;0.87;66.59
56831;BME280;42713;42.676;23.352;2023-01-26T06:58:44;94936.72;;;0.88;67.08
56831;BME280;42713;42.676;23.352;2023-01-26T07:01:22;94932.81;;;0.92;67.55
56831;BME280;42713;42.676;23.352;2023-01-26T07:03:51;94939.72;;;0.92;67.09
56831;BME280;42713;42.676;23.352;2023-01-26T07:06:20;94933.78;;;0.91;67.02
56831;BME280;42713;42.676;23.352;2023-01-26T07:08:48;94933.06;;;0.98;66.51
56831;BME280;42713;42.676;23.352;2023-01-26T07:11:19;94920.53;;;0.95;67.18
56831;BME280;42713;42.676;23.352;2023-01-26T07:13:46;94914.75;;;0.92;66.49
56831;BME280;42713;42.676;23.352;2023-01-26T07:16:15;94919.19;;;0.99;66.79
56831;BME280;42713;42.676;23.352;2023-01-26T07:18:41;94911.03;;;0.95;67.13
56831;BME280;42713;42.676;23.352;2023-01-26T07:21:11;94921.50;;;0.93;67.06
56831;BME280;42713;42.676;23.352;2023-01-26T07:23:36;94915.22;;;0.96;66.84
56831;BME280;42713;42.676;23.352;2023-01-26T07:26:02;94916.44;;;1.00;66.61
56831;BME280;42713;42.676;23.352;2023-01-26T07:28:33;94899.00;;;0.87;67.01
56831;BME280;42713;42.676;23.352;2023-01-26T07:31:12;94894.19;;;0.84;67.23
56831;BME280;42713;42.676;23.352;2023-01-26T07:33:40;94900.34;;;0.98;67.23
56831;BME280;42713;42.676;23.352;2023-01-26T07:36:19;94900.53;;;0.97;67.38
56831;BME280;42713;42.676;23.352;2023-01-26T07:39:16;94907.03;;;1.07;67.55
56831;BME280;42713;42.676;23.352;2023-01-26T07:41:44;94875.88;;;0.94;66.62
56831;BME280;42713;42.676;23.352;2023-01-26T07:44:10;94891.81;;;0.98;67.81
56831;BME280;42713;42.676;23.352;2023-01-26T07:46:36;94900.63;;;1.03;67.61
56831;BME280;42713;42.676;23.352;2023-01-26T07:49:08;94901.94;;;1.14;67.25
56831;BME280;42713;42.676;23.352;2023-01-26T07:51:38;94880.06;;;1.10;67.44
56831;BME280;42713;42.676;23.352;2023-01-26T07:54:05;94892.06;;;1.18;66.62
56831;BME280;42713;42.676;23.352;2023-01-26T07:56:31;94883.28;;;1.12;66.83
56831;BME280;42713;42.676;23.352;2023-01-26T07:58:59;94887.63;;;1.12;66.61
56831;BME280;42713;42.676;23.352;2023-01-26T08:01:29;94885.03;;;1.12;66.62
56831;BME280;42713;42.676;23.352;2023-01-26T08:03:58;94908.69;;;1.30;65.94
56831;BME280;42713;42.676;23.352;2023-01-26T08:06:23;94879.25;;;1.09;65.64
56831;BME280;42713;42.676;23.352;2023-01-26T08:08:55;94868.41;;;1.14;66.10
56831;BME280;42713;42.676;23.352;2023-01-26T08:11:22;94880.84;;;1.26;66.42
56831;BME280;42713;42.676;23.352;2023-01-26T08:13:50;94864.75;;;1.23;65.98
56831;BME280;42713;42.676;23.352;2023-01-26T08:16:21;94882.06;;;1.45;65.97
56831;BME280;42713;42.676;23.352;2023-01-26T08:18:48;94864.03;;;1.30;65.44
56831;BME280;42713;42.676;23.352;2023-01-26T08:21:17;94865.00;;;1.29;65.49
56831;BME280;42713;42.676;23.352;2023-01-26T08:23:48;94858.25;;;1.28;65.48
56831;BME280;42713;42.676;23.352;2023-01-26T08:26:18;94868.13;;;1.39;65.37
56831;BME280;42713;42.676;23.352;2023-01-26T08:31:49;94857.06;;;1.45;64.25
56831;BME280;42713;42.676;23.352;2023-01-26T08:34:46;94839.84;;;1.31;64.67
56831;BME280;42713;42.676;23.352;2023-01-26T08:37:24;94865.53;;;1.39;64.84
56831;BME280;42713;42.676;23.352;2023-01-26T08:40:05;94847.94;;;1.28;64.54
56831;BME280;42713;42.676;23.352;2023-01-26T08:42:58;94853.53;;;1.31;64.28
56831;BME280;42713;42.676;23.352;2023-01-26T08:46:00;94840.53;;;1.24;64.32
56831;BME280;42713;42.676;23.352;2023-01-26T08:48:34;94835.75;;;1.21;64.19
56831;BME280;42713;42.676;23.352;2023-01-26T08:51:12;94837.81;;;1.26;64.70
56831;BME280;42713;42.676;23.352;2023-01-26T08:53:46;94842.13;;;1.40;64.40
56831;BME280;42713;42.676;23.352;2023-01-26T08:56:30;94865.94;;;1.58;64.61
56831;BME280;42713;42.676;23.352;2023-01-26T08:59:01;94845.13;;;1.44;64.02
56831;BME280;42713;42.676;23.352;2023-01-26T09:01:41;94848.41;;;1.53;63.64
56831;BME280;42713;42.676;23.352;2023-01-26T09:04:15;94850.19;;;1.52;63.55
56831;BME280;42713;42.676;23.352;2023-01-26T09:06:45;94839.34;;;1.42;63.51
56831;BME280;42713;42.676;23.352;2023-01-26T09:09:12;94845.75;;;1.46;63.41
56831;BME280;42713;42.676;23.352;2023-01-26T09:11:41;94846.63;;;1.53;63.11
56831;BME280;42713;42.676;23.352;2023-01-26T09:14:15;94846.19;;;1.50;66.11
56831;BME280;42713;42.676;23.352;2023-01-26T09:16:41;94846.22;;;1.71;67.26
56831;BME280;42713;42.676;23.352;2023-01-26T09:19:08;94834.13;;;1.57;64.13
56831;BME280;42713;42.676;23.352;2023-01-26T09:21:34;94842.34;;;1.61;63.78
56831;BME280;42713;42.676;23.352;2023-01-26T09:24:03;94837.78;;;1.63;63.87
56831;BME280;42713;42.676;23.352;2023-01-26T09:26:31;94847.31;;;1.62;63.29
56831;BME280;42713;42.676;23.352;2023-01-26T09:28:59;94845.72;;;1.61;63.69
56831;BME280;42713;42.676;23.352;2023-01-26T09:31:26;94829.25;;;1.62;63.66
56831;BME280;42713;42.676;23.352;2023-01-26T09:33:52;94832.44;;;1.64;63.72
56831;BME280;42713;42.676;23.352;2023-01-26T09:36:22;94824.31;;;1.67;63.49
56831;BME280;42713;42.676;23.352;2023-01-26T09:38:50;94825.13;;;1.68;63.90
56831;BME280;42713;42.676;23.352;2023-01-26T09:44:25;94829.03;;;1.64;63.11
56831;BME280;42713;42.676;23.352;2023-01-26T09:46:54;94832.88;;;1.68;63.96
56831;BME280;42713;42.676;23.352;2023-01-26T09:52:34;94825.38;;;1.73;62.79
56831;BME280;42713;42.676;23.352;2023-01-26T09:55:04;94809.84;;;1.66;63.75
56831;BME280;42713;42.676;23.352;2023-01-26T09:58:04;94806.69;;;1.71;63.33
56831;BME280;42713;42.676;23.352;2023-01-26T10:00:32;94805.53;;;1.74;63.61
56831;BME280;42713;42.676;23.352;2023-01-26T10:06:17;94811.72;;;1.79;63.20
56831;BME280;42713;42.676;23.352;2023-01-26T10:08:47;94809.50;;;1.76;63.52
56831;BME280;42713;42.676;23.352;2023-01-26T10:11:27;94806.16;;;1.76;64.26
56831;BME280;42713;42.676;23.352;2023-01-26T10:14:06;94812.59;;;1.86;63.20
56831;BME280;42713;42.676;23.352;2023-01-26T10:16:36;94811.97;;;1.84;63.35
56831;BME280;42713;42.676;23.352;2023-01-26T10:19:13;94805.38;;;1.82;63.71
56831;BME280;42713;42.676;23.352;2023-01-26T10:21:44;94783.50;;;1.78;63.27
56831;BME280;42713;42.676;23.352;2023-01-26T10:24:16;94783.97;;;1.88;63.06
56831;BME280;42713;42.676;23.352;2023-01-26T10:26:46;94772.50;;;1.91;63.50
56831;BME280;42713;42.676;23.352;2023-01-26T10:29:21;94765.16;;;1.94;63.31
56831;BME280;42713;42.676;23.352;2023-01-26T10:31:46;94761.78;;;1.94;62.90
56831;BME280;42713;42.676;23.352;2023-01-26T10:34:19;94771.53;;;1.98;62.36
56831;BME280;42713;42.676;23.352;2023-01-26T10:36:47;94757.84;;;1.98;62.84
56831;BME280;42713;42.676;23.352;2023-01-26T10:39:24;94751.13;;;2.04;62.51
56831;BME280;42713;42.676;23.352;2023-01-26T10:42:00;94738.00;;;2.05;62.46
56831;BME280;42713;42.676;23.352;2023-01-26T10:44:37;94717.53;;;2.04;62.39
56831;BME280;42713;42.676;23.352;2023-01-26T10:47:14;94721.72;;;2.05;62.59
56831;BME280;42713;42.676;23.352;2023-01-26T10:49:40;94712.19;;;2.05;62.80
56831;BME280;42713;42.676;23.352;2023-01-26T10:52:22;94707.06;;;2.12;62.41
56831;BME280;42713;42.676;23.352;2023-01-26T10:55:11;94692.75;;;2.16;62.35
56831;BME280;42713;42.676;23.352;2023-01-26T10:57:41;94686.81;;;2.15;62.22
56831;BME280;42713;42.676;23.352;2023-01-26T11:00:28;94682.88;;;2.20;62.83
56831;BME280;42713;42.676;23.352;2023-01-26T11:03:04;94675.53;;;2.23;62.60
56831;BME280;42713;42.676;23.352;2023-01-26T11:05:35;94674.53;;;2.31;62.45
56831;BME280;42713;42.676;23.352;2023-01-26T11:08:00;94676.56;;;2.36;61.75
56831;BME280;42713;42.676;23.352;2023-01-26T11:10:36;94662.06;;;2.41;61.95
56831;BME280;42713;42.676;23.352;2023-01-26T11:13:16;94665.50;;;2.48;61.54
56831;BME280;42713;42.676;23.352;2023-01-26T11:15:59;94641.03;;;2.51;61.96
56831;BME280;42713;42.676;23.352;2023-01-26T11:21:15;94633.28;;;2.51;61.05
56831;BME280;42713;42.676;23.352;2023-01-26T11:37:35;94617.41;;;2.61;61.53
56831;BME280;42713;42.676;23.352;2023-01-26T11:45:27;94591.38;;;2.62;61.65
56831;BME280;42713;42.676;23.352;2023-01-26T11:48:37;94591.53;;;2.61;61.32
56831;BME280;42713;42.676;23.352;2023-01-26T11:56:58;94597.91;;;2.58;62.60
56831;BME280;42713;42.676;23.352;2023-01-26T11:59:42;94598.88;;;2.57;62.11
56831;BME280;42713;42.676;23.352;2023-01-26T12:04:48;94588.38;;;2.59;61.53
56831;BME280;42713;42.676;23.352;2023-01-26T12:07:19;94587.56;;;2.58;61.88
56831;BME280;42713;42.676;23.352;2023-01-26T12:09:48;94579.78;;;2.52;61.87
56831;BME280;42713;42.676;23.352;2023-01-26T12:14:53;94572.78;;;2.39;62.50
56831;BME280;42713;42.676;23.352;2023-01-26T12:20:48;94563.84;;;2.41;62.68
56831;BME280;42713;42.676;23.352;2023-01-26T12:23:28;94549.16;;;2.42;63.50
56831;BME280;42713;42.676;23.352;2023-01-26T12:25:59;94547.16;;;2.44;62.93
56831;BME280;42713;42.676;23.352;2023-01-26T12:28:34;94539.78;;;2.41;63.29
56831;BME280;42713;42.676;23.352;2023-01-26T12:31:03;94541.56;;;2.40;63.40
56831;BME280;42713;42.676;23.352;2023-01-26T12:33:32;94540.59;;;2.41;63.16
56831;BME280;42713;42.676;23.352;2023-01-26T12:46:30;94524.72;;;2.58;63.43
56831;BME280;42713;42.676;23.352;2023-01-26T12:49:17;94525.09;;;2.55;63.46
56831;BME280;42713;42.676;23.352;2023-01-26T12:52:17;94522.53;;;2.55;63.37
56831;BME280;42713;42.676;23.352;2023-01-26T12:54:56;94528.09;;;2.58;63.87
56831;BME280;42713;42.676;23.352;2023-01-26T12:57:35;94523.72;;;2.59;63.09
56831;BME280;42713;42.676;23.352;2023-01-26T13:00:23;94527.09;;;2.53;63.70
56831;BME280;42713;42.676;23.352;2023-01-26T13:02:56;94519.94;;;2.55;63.72
56831;BME280;42713;42.676;23.352;2023-01-26T13:05:31;94506.00;;;2.49;64.06
56831;BME280;42713;42.676;23.352;2023-01-26T13:10:48;94523.28;;;2.42;64.72
56831;BME280;42713;42.676;23.352;2023-01-26T13:15:42;94510.56;;;2.47;64.60
56831;BME280;42713;42.676;23.352;2023-01-26T13:18:12;94513.56;;;2.44;65.03
56831;BME280;42713;42.676;23.352;2023-01-26T13:28:50;94497.44;;;2.35;65.60
56831;BME280;42713;42.676;23.352;2023-01-26T13:31:32;94499.41;;;2.33;65.70
56831;BME280;42713;42.676;23.352;2023-01-26T13:34:00;94492.84;;;2.30;65.66
56831;BME280;42713;42.676;23.352;2023-01-26T13:36:31;94495.41;;;2.24;65.46
56831;BME280;42713;42.676;23.352;2023-01-26T13:39:28;94490.63;;;2.21;66.10
56831;BME280;42713;42.676;23.352;2023-01-26T13:41:55;94496.63;;;2.21;66.52
56831;BME280;42713;42.676;23.352;2023-01-26T13:44:29;94487.84;;;2.15;65.92
56831;BME280;42713;42.676;23.352;2023-01-26T13:47:06;94489.03;;;2.13;66.43
56831;BME280;42713;42.676;23.352;2023-01-26T13:49:38;94487.25;;;2.13;66.85
56831;BME280;42713;42.676;23.352;2023-01-26T13:52:21;94490.22;;;2.17;66.45
56831;BME280;42713;42.676;23.352;2023-01-26T13:54:49;94484.47;;;2.22;66.19
56831;BME280;42713;42.676;23.352;2023-01-26T13:57:26;94492.44;;;2.20;66.85
56831;BME280;42713;42.676;23.352;2023-01-26T13:59:57;94485.31;;;2.29;66.42
56831;BME280;42713;42.676;23.352;2023-01-26T14:02:31;94471.41;;;2.30;65.85
56831;BME280;42713;42.676;23.352;2023-01-26T14:04:58;94466.63;;;2.33;65.68
56831;BME280;42713;42.676;23.352;2023-01-26T14:07:30;94457.47;;;2.38;65.66
56831;BME280;42713;42.676;23.352;2023-01-26T14:09:59;94466.03;;;2.38;65.52
56831;BME280;42713;42.676;23.352;2023-01-26T14:12:35;94457.09;;;2.41;65.76
56831;BME280;42713;42.676;23.352;2023-01-26T14:15:06;94453.50;;;2.42;65.62
56831;BME280;42713;42.676;23.352;2023-01-26T14:17:35;94455.28;;;2.41;65.51
56831;BME280;42713;42.676;23.352;2023-01-26T14:23:10;94445.38;;;2.45;65.05
56831;BME280;42713;42.676;23.352;2023-01-26T14:25:42;94448.13;;;2.50;64.76
56831;BME280;42713;42.676;23.352;2023-01-26T14:28:17;94449.72;;;2.44;64.36
56831;BME280;42713;42.676;23.352;2023-01-26T14:30:50;94452.69;;;2.41;64.80
56831;BME280;42713;42.676;23.352;2023-01-26T14:33:17;94444.75;;;2.43;64.98
56831;BME280;42713;42.676;23.352;2023-01-26T14:35:54;94443.19;;;2.48;64.41
56831;BME280;42713;42.676;23.352;2023-01-26T14:38:20;94439.59;;;2.49;64.42
56831;BME280;42713;42.676;23.352;2023-01-26T14:40:51;94441.97;;;2.51;64.67
56831;BME280;42713;42.676;23.352;2023-01-26T14:43:17;94440.59;;;2.48;64.24
56831;BME280;42713;42.676;23.352;2023-01-26T14:48:23;94434.41;;;2.56;64.02
56831;BME280;42713;42.676;23.352;2023-01-26T14:50:51;94437.00;;;2.56;64.21